createdAt,value
2023-01-15T00:00:00.627Z,99510.56
2023-01-15T00:01:03.531Z,99514.75
2023-01-15T00:02:05.710Z,99512.94
2023-01-15T00:03:07.138Z,99523.72
2023-01-15T00:04:09.184Z,99506.56
2023-01-15T00:05:10.540Z,99509.34
2023-01-15T00:06:11.967Z,99509.25
2023-01-15T00:07:13.396Z,99502.94
2023-01-15T00:08:14.967Z,99499.31
2023-01-15T00:09:16.545Z,99502.97
2023-01-15T00:10:18.080Z,99516.59
2023-01-15T00:11:20.335Z,99502.59
2023-01-15T00:12:21.761Z,99491.81
2023-01-15T00:13:23.192Z,99499.97
2023-01-15T00:14:24.620Z,99490.13
2023-01-15T00:15:26.130Z,99500.03
2023-01-15T00:16:28.033Z,99488.34
2023-01-15T00:17:29.467Z,99486.56
2023-01-15T00:18:30.926Z,99486.63
2023-01-15T00:19:32.329Z,99485.88
2023-01-15T00:20:33.749Z,99503.59
2023-01-15T00:21:35.198Z,99494.53
2023-01-15T00:22:36.640Z,99498.88
2023-01-15T00:23:56.988Z,99494.53
2023-01-15T00:25:16.807Z,99493.47
2023-01-15T00:26:39.308Z,99496.81
2023-01-15T00:27:40.805Z,99493.41
2023-01-15T00:28:42.727Z,99494.25
2023-01-15T00:29:44.201Z,99486.44
2023-01-15T00:30:45.656Z,99503.31
2023-01-15T00:31:55.314Z,99501.56
2023-01-15T00:32:58.753Z,99496.06
2023-01-15T00:34:00.200Z,99488.81
2023-01-15T00:35:01.654Z,99480.97
2023-01-15T00:36:03.113Z,99495.41
2023-01-15T00:37:04.903Z,99475.38
2023-01-15T00:38:06.310Z,99483.59
2023-01-15T00:39:07.715Z,99478.97
2023-01-15T00:40:10.236Z,99465.63
2023-01-15T00:41:11.702Z,99466.41
2023-01-15T00:42:13.464Z,99460.13
2023-01-15T00:43:14.889Z,99469.59
2023-01-15T00:44:17.021Z,99443.72
2023-01-15T00:45:18.439Z,99456.28
2023-01-15T00:46:20.458Z,99452.72
2023-01-15T00:47:21.935Z,99441.88
2023-01-15T00:48:23.421Z,99441.47
2023-01-15T00:49:24.841Z,99439.72
2023-01-15T00:50:26.255Z,99436.34
2023-01-15T00:51:31.105Z,99441.66
2023-01-15T00:52:32.670Z,99441.56
2023-01-15T00:53:34.054Z,99427.22
2023-01-15T00:54:35.561Z,99429.69
2023-01-15T00:55:36.983Z,99442.16
2023-01-15T00:56:38.442Z,99453.88
2023-01-15T00:57:39.883Z,99456.63
2023-01-15T00:58:41.399Z,99453.00
2023-01-15T00:59:42.814Z,99450.16
2023-01-15T01:00:44.287Z,99442.25
2023-01-15T01:01:45.823Z,99448.38
2023-01-15T01:02:47.284Z,99440.28
2023-01-15T01:03:50.158Z,99434.66
2023-01-15T01:04:51.608Z,99426.09
2023-01-15T01:05:53.029Z,99424.31
2023-01-15T01:06:54.538Z,99434.31
2023-01-15T01:07:55.956Z,99432.59
2023-01-15T01:08:57.472Z,99428.28
2023-01-15T01:09:58.944Z,99435.75
2023-01-15T01:11:03.382Z,99429.34
2023-01-15T01:12:05.779Z,99428.16
2023-01-15T01:13:07.193Z,99427.84
2023-01-15T01:14:10.923Z,99428.84
2023-01-15T01:15:12.412Z,99431.81
2023-01-15T01:16:33.473Z,99427.97
2023-01-15T01:17:37.160Z,99420.69
2023-01-15T01:18:38.564Z,99420.75
2023-01-15T01:19:40.013Z,99417.19
2023-01-15T01:20:41.428Z,99422.53
2023-01-15T01:21:43.955Z,99423.44
2023-01-15T01:22:48.573Z,99422.53
2023-01-15T01:23:50.126Z,99427.91
2023-01-15T01:24:51.554Z,99431.53
2023-01-15T01:25:52.960Z,99424.41
2023-01-15T01:26:54.913Z,99424.00
2023-01-15T01:27:56.270Z,99429.53
2023-01-15T01:28:58.550Z,99427.97
2023-01-15T01:29:59.989Z,99430.72
2023-01-15T01:31:05.318Z,99440.59
2023-01-15T01:32:06.803Z,99445.00
2023-01-15T01:33:08.459Z,99444.81
2023-01-15T01:34:11.161Z,99437.81
2023-01-15T01:35:12.589Z,99429.13
2023-01-15T01:36:14.021Z,99440.00
2023-01-15T01:37:16.360Z,99432.69
2023-01-15T01:38:17.844Z,99422.97
2023-01-15T01:39:19.653Z,99435.47
2023-01-15T01:40:21.181Z,99431.00
2023-01-15T01:41:22.987Z,99437.31
2023-01-15T01:42:25.845Z,99408.56
2023-01-15T01:43:29.598Z,99418.94
2023-01-15T01:44:33.943Z,99417.25
2023-01-15T01:45:35.423Z,99408.31
2023-01-15T01:46:36.911Z,99405.63
2023-01-15T01:47:38.706Z,99406.72
2023-01-15T01:48:40.196Z,99412.16
2023-01-15T01:49:44.909Z,99405.09
2023-01-15T01:50:48.671Z,99396.06
2023-01-15T01:51:56.845Z,99409.50
2023-01-15T01:53:02.480Z,99401.47
2023-01-15T01:54:04.664Z,99419.94
2023-01-15T01:55:07.623Z,99414.56
2023-01-15T01:56:11.557Z,99414.81
2023-01-15T01:57:15.706Z,99416.69
2023-01-15T01:58:20.132Z,99417.59
2023-01-15T01:59:24.140Z,99422.81
2023-01-15T02:00:25.850Z,99415.75
2023-01-15T02:01:27.387Z,99420.25
2023-01-15T02:02:29.193Z,99420.34
2023-01-15T02:03:35.420Z,99426.78
2023-01-15T02:04:37.633Z,99423.41
2023-01-15T02:05:43.705Z,99422.53
2023-01-15T02:06:45.375Z,99417.19
2023-01-15T02:07:46.788Z,99427.84
2023-01-15T02:08:48.243Z,99425.13
2023-01-15T02:09:49.647Z,99422.16
2023-01-15T02:10:56.121Z,99425.88
2023-01-15T02:12:09.033Z,99423.28
2023-01-15T02:13:19.479Z,99422.38
2023-01-15T02:14:29.942Z,99421.53
2023-01-15T02:15:41.965Z,99409.94
2023-01-15T02:16:50.522Z,99408.13
2023-01-15T02:18:20.977Z,99409.97
2023-01-15T02:20:05.640Z,99403.78
2023-01-15T02:21:19.329Z,99411.13
2023-01-15T02:22:45.231Z,99406.84
2023-01-15T02:23:55.703Z,99413.06
2023-01-15T02:25:08.122Z,99414.72
2023-01-15T02:26:40.429Z,99414.84
2023-01-15T02:27:55.394Z,99421.22
2023-01-15T02:28:59.263Z,99413.25
2023-01-15T02:30:24.664Z,99415.91
2023-01-15T02:31:52.812Z,99412.47
2023-01-15T02:32:59.362Z,99414.16
2023-01-15T02:34:07.890Z,99406.25
2023-01-15T02:35:22.973Z,99407.03
2023-01-15T02:36:28.996Z,99409.78
2023-01-15T02:37:33.988Z,99413.53
2023-01-15T02:38:41.463Z,99411.47
2023-01-15T02:39:47.409Z,99406.94
2023-01-15T02:40:53.937Z,99400.81
2023-01-15T02:41:57.089Z,99399.94
2023-01-15T02:42:59.278Z,99398.16
2023-01-15T02:44:02.834Z,99395.28
2023-01-15T02:45:08.553Z,99389.78
2023-01-15T02:46:12.024Z,99385.50
2023-01-15T02:47:15.325Z,99387.19
2023-01-15T02:48:20.416Z,99390.94
2023-01-15T02:49:22.710Z,99396.47
2023-01-15T02:50:35.649Z,99391.03
2023-01-15T02:51:52.203Z,99394.78
2023-01-15T02:52:59.580Z,99390.09
2023-01-15T02:54:06.400Z,99389.06
2023-01-15T02:55:20.321Z,99384.81
2023-01-15T02:56:25.715Z,99382.06
2023-01-15T02:57:30.522Z,99394.84
2023-01-15T02:58:37.605Z,99383.81
2023-01-15T02:59:44.041Z,99389.00
2023-01-15T03:00:49.409Z,99390.13
2023-01-15T03:01:58.566Z,99390.09
2023-01-15T03:03:11.307Z,99391.94
2023-01-15T03:04:23.141Z,99390.09
2023-01-15T03:05:35.679Z,99392.03
2023-01-15T03:06:50.299Z,99392.91
2023-01-15T03:07:55.884Z,99390.91
2023-01-15T03:08:57.382Z,99391.91
2023-01-15T03:09:59.225Z,99392.06
2023-01-15T03:11:09.436Z,99382.06
2023-01-15T03:12:22.258Z,99385.47
2023-01-15T03:13:43.319Z,99382.84
2023-01-15T03:14:56.812Z,99383.94
2023-01-15T03:16:26.351Z,99372.00
2023-01-15T03:17:38.397Z,99388.97
2023-01-15T03:18:53.372Z,99398.81
2023-01-15T03:20:02.445Z,99390.00
2023-01-15T03:21:08.069Z,99380.19
2023-01-15T03:22:21.633Z,99386.41
2023-01-15T03:23:25.237Z,99385.44
2023-01-15T03:24:47.642Z,99386.25
2023-01-15T03:25:50.576Z,99394.19
2023-01-15T03:26:53.639Z,99390.53
2023-01-15T03:27:59.697Z,99384.34
2023-01-15T03:29:03.538Z,99371.78
2023-01-15T03:30:17.287Z,99382.53
2023-01-15T03:31:18.831Z,99378.22
2023-01-15T03:32:22.551Z,99371.00
2023-01-15T03:33:24.094Z,99385.44
2023-01-15T03:34:31.294Z,99382.72
2023-01-15T03:36:11.264Z,99380.97
2023-01-15T03:37:13.865Z,99374.56
2023-01-15T03:38:22.309Z,99389.97
2023-01-15T03:39:23.755Z,99382.63
2023-01-15T03:40:25.381Z,99383.44
2023-01-15T03:41:55.837Z,99378.91
2023-01-15T03:43:23.423Z,99384.38
2023-01-15T03:44:40.617Z,99387.97
2023-01-15T03:45:43.771Z,99383.41
2023-01-15T03:47:04.467Z,99383.53
2023-01-15T03:48:20.691Z,99384.53
2023-01-15T03:49:51.404Z,99387.28
2023-01-15T03:51:18.403Z,99392.56
2023-01-15T03:52:31.485Z,99396.19
2023-01-15T03:53:41.966Z,99394.41
2023-01-15T03:55:04.744Z,99392.50
2023-01-15T03:56:29.846Z,99392.47
2023-01-15T03:57:53.348Z,99386.22
2023-01-15T03:59:03.573Z,99390.06
2023-01-15T04:00:15.672Z,99391.66
2023-01-15T04:01:22.741Z,99405.16
2023-01-15T04:02:26.612Z,99387.19
2023-01-15T04:03:30.271Z,99389.91
2023-01-15T04:04:33.078Z,99380.00
2023-01-15T04:05:36.953Z,99396.19
2023-01-15T04:06:41.973Z,99390.66
2023-01-15T04:07:44.705Z,99393.28
2023-01-15T04:08:47.777Z,99384.91
2023-01-15T04:09:49.317Z,99389.72
2023-01-15T04:10:58.879Z,99384.38
2023-01-15T04:12:01.304Z,99393.28
2023-01-15T04:13:02.822Z,99393.28
2023-01-15T04:14:04.563Z,99397.13
2023-01-15T04:15:06.587Z,99399.63
2023-01-15T04:16:08.559Z,99398.03
2023-01-15T04:17:10.584Z,99397.88
2023-01-15T04:18:12.014Z,99398.03
2023-01-15T04:19:13.593Z,99399.72
2023-01-15T04:20:15.269Z,99386.59
2023-01-15T04:21:16.700Z,99442.81
2023-01-15T04:22:18.137Z,99442.34
2023-01-15T04:23:19.590Z,99453.75
2023-01-15T04:24:21.124Z,99453.84
2023-01-15T04:25:22.557Z,99456.72
2023-01-15T04:26:24.050Z,99473.13
2023-01-15T04:27:27.209Z,99481.44
2023-01-15T04:28:28.612Z,99486.84
2023-01-15T04:29:30.043Z,99488.09
2023-01-15T04:30:31.455Z,99499.66
2023-01-15T04:31:33.464Z,99502.97
2023-01-15T04:32:34.762Z,99487.91
2023-01-15T04:33:36.707Z,99469.88
2023-01-15T04:34:38.183Z,99504.91
2023-01-15T04:35:39.673Z,99497.88
2023-01-15T04:36:42.545Z,99481.75
2023-01-15T04:37:43.992Z,99503.56
2023-01-15T04:38:45.443Z,99491.22
2023-01-15T04:39:47.034Z,99496.75
2023-01-15T04:41:06.983Z,99499.59
2023-01-15T04:42:31.799Z,99501.59
2023-01-15T04:43:51.666Z,99508.00
2023-01-15T04:44:53.072Z,99517.97
2023-01-15T04:45:54.547Z,99529.81
2023-01-15T04:46:57.529Z,99533.41
2023-01-15T04:47:58.977Z,99530.94
2023-01-15T04:49:00.412Z,99538.22
2023-01-15T04:50:01.907Z,99550.84
2023-01-15T04:51:04.601Z,99550.94
2023-01-15T04:52:06.501Z,99562.72
2023-01-15T04:53:07.927Z,99554.66
2023-01-15T04:54:11.277Z,99560.16
2023-01-15T04:55:12.894Z,99555.66
2023-01-15T04:56:14.290Z,99553.03
2023-01-15T04:57:15.713Z,99543.28
2023-01-15T04:58:17.109Z,99548.75
2023-01-15T04:59:21.069Z,99561.50
2023-01-15T05:00:23.157Z,99558.81
2023-01-15T05:01:24.628Z,99558.88
2023-01-15T05:02:26.162Z,99559.88
2023-01-15T05:03:31.244Z,99558.16
2023-01-15T05:04:33.381Z,99549.25
2023-01-15T05:05:34.810Z,99561.84
2023-01-15T05:06:36.633Z,99564.69
2023-01-15T05:07:38.065Z,99573.63
2023-01-15T05:08:39.787Z,99574.59
2023-01-15T05:09:41.210Z,99574.59
2023-01-15T05:10:42.598Z,99569.31
2023-01-15T05:11:44.055Z,99572.94
2023-01-15T05:12:45.457Z,99574.75
2023-01-15T05:13:46.864Z,99571.13
2023-01-15T05:14:48.445Z,99566.69
2023-01-15T05:15:49.873Z,99560.44
2023-01-15T05:16:51.366Z,99568.41
2023-01-15T05:17:52.755Z,99563.09
2023-01-15T05:18:57.924Z,99569.41
2023-01-15T05:19:59.334Z,99560.47
2023-01-15T05:21:00.786Z,99561.41
2023-01-15T05:22:02.202Z,99561.38
2023-01-15T05:23:03.591Z,99564.06
2023-01-15T05:24:08.613Z,99565.06
2023-01-15T05:25:10.104Z,99566.84
2023-01-15T05:26:11.744Z,99564.25
2023-01-15T05:27:13.178Z,99571.34
2023-01-15T05:28:14.561Z,99575.00
2023-01-15T05:29:15.993Z,99566.97
2023-01-15T05:30:17.792Z,99567.78
2023-01-15T05:31:19.636Z,99558.88
2023-01-15T05:32:21.110Z,99550.88
2023-01-15T05:33:22.527Z,99558.88
2023-01-15T05:34:23.941Z,99557.00
2023-01-15T05:35:25.337Z,99560.59
2023-01-15T05:36:30.325Z,99571.41
2023-01-15T05:37:31.777Z,99575.06
2023-01-15T05:38:33.847Z,99579.56
2023-01-15T05:39:35.237Z,99580.44
2023-01-15T05:40:36.678Z,99576.88
2023-01-15T05:41:50.243Z,99561.63
2023-01-15T05:42:51.791Z,99563.38
2023-01-15T05:43:53.359Z,99567.84
2023-01-15T05:44:54.852Z,99555.25
2023-01-15T05:45:56.298Z,99554.38
2023-01-15T05:47:00.239Z,99558.88
2023-01-15T05:48:01.694Z,99567.91
2023-01-15T05:49:07.001Z,99565.16
2023-01-15T05:50:09.320Z,99561.63
2023-01-15T05:51:10.723Z,99557.13
2023-01-15T05:52:12.257Z,99564.41
2023-01-15T05:53:13.648Z,99571.63
2023-01-15T05:54:17.710Z,99561.81
2023-01-15T05:55:19.182Z,99578.78
2023-01-15T05:56:20.662Z,99570.69
2023-01-15T05:57:22.075Z,99571.53
2023-01-15T05:58:23.488Z,99566.06
2023-01-15T05:59:27.336Z,99569.66
2023-01-15T06:00:30.442Z,99558.13
2023-01-15T06:01:35.753Z,99569.66
2023-01-15T06:02:37.207Z,99563.41
2023-01-15T06:03:38.724Z,99557.13
2023-01-15T06:04:40.179Z,99559.75
2023-01-15T06:05:41.654Z,99557.13
2023-01-15T06:06:43.689Z,99558.03
2023-01-15T06:07:44.977Z,99566.06
2023-01-15T06:08:46.876Z,99559.75
2023-01-15T06:09:48.264Z,99562.53
2023-01-15T06:10:50.535Z,99565.28
2023-01-15T06:11:53.597Z,99564.31
2023-01-15T06:12:55.048Z,99540.16
2023-01-15T06:13:56.537Z,99546.38
2023-01-15T06:14:57.946Z,99553.63
2023-01-15T06:16:00.226Z,99554.53
2023-01-15T06:17:01.848Z,99549.22
2023-01-15T06:18:03.440Z,99548.34
2023-01-15T06:19:06.651Z,99550.22
2023-01-15T06:20:08.879Z,99556.53
2023-01-15T06:21:12.376Z,99535.06
2023-01-15T06:22:13.748Z,99550.22
2023-01-15T06:23:17.934Z,99540.41
2023-01-15T06:24:20.624Z,99554.72
2023-01-15T06:25:22.291Z,99566.38
2023-01-15T06:26:24.119Z,99566.31
2023-01-15T06:27:25.520Z,99558.19
2023-01-15T06:28:27.392Z,99558.19
2023-01-15T06:29:28.831Z,99556.47
2023-01-15T06:30:30.430Z,99552.88
2023-01-15T06:31:32.514Z,99554.66
2023-01-15T06:32:33.973Z,99554.72
2023-01-15T06:33:36.187Z,99556.59
2023-01-15T06:34:37.658Z,99559.19
2023-01-15T06:35:39.089Z,99560.97
2023-01-15T06:36:40.533Z,99571.78
2023-01-15T06:37:41.959Z,99572.72
2023-01-15T06:38:44.761Z,99565.47
2023-01-15T06:39:46.158Z,99568.19
2023-01-15T06:40:47.652Z,99566.44
2023-01-15T06:42:07.474Z,99576.09
2023-01-15T06:43:29.222Z,99577.88
2023-01-15T06:44:49.085Z,99577.03
2023-01-15T06:46:25.846Z,99577.03
2023-01-15T06:47:27.357Z,99573.53
2023-01-15T06:48:28.795Z,99569.97
2023-01-15T06:49:31.251Z,99562.75
2023-01-15T06:50:32.705Z,99572.63
2023-01-15T06:51:34.167Z,99577.13
2023-01-15T06:52:35.631Z,99582.56
2023-01-15T06:53:37.058Z,99573.63
2023-01-15T06:54:38.534Z,99581.69
2023-01-15T06:55:39.948Z,99571.84
2023-01-15T06:56:41.385Z,99570.03
2023-01-15T06:57:42.848Z,99575.50
2023-01-15T06:58:44.459Z,99578.19
2023-01-15T06:59:46.402Z,99576.44
2023-01-15T07:00:55.934Z,99573.75
2023-01-15T07:01:57.664Z,99565.78
2023-01-15T07:03:02.791Z,99580.88
2023-01-15T07:04:04.572Z,99576.44
2023-01-15T07:05:06.269Z,99579.09
2023-01-15T07:06:09.239Z,99572.84
2023-01-15T07:07:10.638Z,99582.69
2023-01-15T07:08:12.087Z,99579.94
2023-01-15T07:09:13.599Z,99582.56
2023-01-15T07:10:14.992Z,99582.63
2023-01-15T07:11:17.655Z,99580.84
2023-01-15T07:12:19.505Z,99584.44
2023-01-15T07:13:20.955Z,99593.53
2023-01-15T07:14:25.292Z,99600.63
2023-01-15T07:15:26.781Z,99589.81
2023-01-15T07:16:28.242Z,99595.22
2023-01-15T07:17:29.789Z,99590.72
2023-01-15T07:18:33.278Z,99598.78
2023-01-15T07:19:34.678Z,99595.22
2023-01-15T07:20:36.140Z,99591.56
2023-01-15T07:21:37.618Z,99600.63
2023-01-15T07:22:39.035Z,99600.69
2023-01-15T07:23:40.448Z,99589.06
2023-01-15T07:24:41.893Z,99601.66
2023-01-15T07:25:43.335Z,99593.53
2023-01-15T07:26:45.524Z,99599.78
2023-01-15T07:27:48.270Z,99588.16
2023-01-15T07:28:50.159Z,99594.41
2023-01-15T07:29:52.315Z,99594.44
2023-01-15T07:30:58.531Z,99593.56
2023-01-15T07:32:00.195Z,99602.53
2023-01-15T07:33:01.607Z,99597.16
2023-01-15T07:34:03.336Z,99592.53
2023-01-15T07:35:05.151Z,99596.09
2023-01-15T07:36:06.838Z,99615.09
2023-01-15T07:37:08.244Z,99613.34
2023-01-15T07:38:09.694Z,99612.44
2023-01-15T07:39:11.958Z,99623.19
2023-01-15T07:40:13.429Z,99608.00
2023-01-15T07:41:33.644Z,99613.34
2023-01-15T07:42:53.411Z,99603.50
2023-01-15T07:44:13.139Z,99606.19
2023-01-15T07:45:32.858Z,99591.81
2023-01-15T07:46:52.666Z,99600.78
2023-01-15T07:48:13.111Z,99601.66
2023-01-15T07:49:34.144Z,99604.34
2023-01-15T07:50:36.723Z,99604.41
2023-01-15T07:51:38.140Z,99619.69
2023-01-15T07:52:39.587Z,99616.09
2023-01-15T07:53:41.005Z,99625.88
2023-01-15T07:54:42.897Z,99614.31
2023-01-15T07:55:44.333Z,99631.34
2023-01-15T07:56:45.876Z,99632.19
2023-01-15T07:57:47.314Z,99633.16
2023-01-15T07:58:50.138Z,99626.84
2023-01-15T07:59:51.698Z,99635.84
2023-01-15T08:00:53.435Z,99627.78
2023-01-15T08:01:55.051Z,99624.19
2023-01-15T08:02:56.513Z,99638.53
2023-01-15T08:03:57.948Z,99639.44
2023-01-15T08:04:59.371Z,99643.88
2023-01-15T08:06:00.859Z,99636.72
2023-01-15T08:07:03.809Z,99642.97
2023-01-15T08:08:05.441Z,99646.53
2023-01-15T08:09:06.861Z,99648.31
2023-01-15T08:10:10.639Z,99650.06
2023-01-15T08:11:30.606Z,99639.31
2023-01-15T08:12:50.260Z,99627.63
2023-01-15T08:14:23.792Z,99633.97
2023-01-15T08:15:25.782Z,99622.25
2023-01-15T08:16:27.225Z,99620.38
2023-01-15T08:17:28.672Z,99611.38
2023-01-15T08:18:30.141Z,99611.38
2023-01-15T08:19:31.664Z,99587.97
2023-01-15T08:20:34.589Z,99606.75
2023-01-15T08:21:36.003Z,99604.13
2023-01-15T08:22:38.571Z,99602.38
2023-01-15T08:23:40.050Z,99602.38
2023-01-15T08:24:41.472Z,99605.06
2023-01-15T08:25:42.894Z,99615.81
2023-01-15T08:26:44.314Z,99614.00
2023-01-15T08:27:46.251Z,99614.00
2023-01-15T08:28:47.623Z,99603.31
2023-01-15T08:29:49.143Z,99616.75
2023-01-15T08:30:50.572Z,99610.53
2023-01-15T08:31:52.048Z,99625.78
2023-01-15T08:32:59.269Z,99624.81
2023-01-15T08:34:00.670Z,99624.88
2023-01-15T08:35:02.155Z,99621.28
2023-01-15T08:36:04.000Z,99619.53
2023-01-15T08:37:05.478Z,99618.56
2023-01-15T08:38:07.763Z,99616.75
2023-01-15T08:39:10.393Z,99623.00
2023-01-15T08:40:14.580Z,99620.25
2023-01-15T08:41:16.221Z,99620.25
2023-01-15T08:42:17.628Z,99621.22
2023-01-15T08:43:19.051Z,99625.66
2023-01-15T08:44:21.541Z,99615.69
2023-01-15T08:45:22.994Z,99627.34
2023-01-15T08:46:24.394Z,99634.59
2023-01-15T08:47:25.791Z,99635.38
2023-01-15T08:48:28.875Z,99634.41
2023-01-15T08:49:30.402Z,99625.38
2023-01-15T08:50:31.855Z,99626.25
2023-01-15T08:51:33.314Z,99631.59
2023-01-15T08:52:34.802Z,99634.25
2023-01-15T08:53:38.379Z,99630.69
2023-01-15T08:54:42.031Z,99625.28
2023-01-15T08:55:43.627Z,99622.59
2023-01-15T08:56:45.862Z,99620.78
2023-01-15T08:57:47.632Z,99617.13
2023-01-15T08:58:51.747Z,99624.22
2023-01-15T08:59:53.179Z,99622.41
2023-01-15T09:00:54.628Z,99618.81
2023-01-15T09:01:56.204Z,99608.97
2023-01-15T09:02:58.018Z,99625.94
2023-01-15T09:03:59.763Z,99629.59
2023-01-15T09:05:01.255Z,99633.09
2023-01-15T09:06:03.223Z,99634.94
2023-01-15T09:07:04.686Z,99626.06
2023-01-15T09:08:07.300Z,99639.44
2023-01-15T09:09:09.580Z,99640.34
2023-01-15T09:10:11.171Z,99647.59
2023-01-15T09:11:13.808Z,99639.59
2023-01-15T09:12:15.578Z,99646.59
2023-01-15T09:13:17.239Z,99650.19
2023-01-15T09:15:00.072Z,99662.84
2023-01-15T09:15:40.133Z,99658.34
2023-01-15T09:16:41.980Z,99645.69
2023-01-15T09:17:43.413Z,99648.41
2023-01-15T09:18:44.844Z,99642.00
2023-01-15T09:19:46.310Z,99642.91
2023-01-15T09:20:48.105Z,99644.72
2023-01-15T09:21:49.536Z,99641.97
2023-01-15T09:22:51.596Z,99653.72
2023-01-15T09:23:52.923Z,99641.97
2023-01-15T09:24:54.313Z,99644.66
2023-01-15T09:26:01.070Z,99649.94
2023-01-15T09:27:02.483Z,99655.28
2023-01-15T09:28:04.085Z,99657.13
2023-01-15T09:29:07.306Z,99656.28
2023-01-15T09:30:14.239Z,99657.13
2023-01-15T09:31:15.682Z,99650.84
2023-01-15T09:32:17.151Z,99660.81
2023-01-15T09:33:18.786Z,99653.59
2023-01-15T09:34:20.318Z,99650.84
2023-01-15T09:35:24.992Z,99656.13
2023-01-15T09:36:29.312Z,99657.00
2023-01-15T09:37:30.804Z,99665.06
2023-01-15T09:38:34.380Z,99663.25
2023-01-15T09:39:37.846Z,99662.28
2023-01-15T09:40:57.441Z,99665.88
2023-01-15T09:42:08.490Z,99662.28
2023-01-15T09:43:24.129Z,99672.19
2023-01-15T09:44:32.409Z,99669.50
2023-01-15T09:45:36.410Z,99670.28
2023-01-15T09:46:48.064Z,99666.72
2023-01-15T09:48:11.738Z,99677.44
2023-01-15T09:49:55.142Z,99670.13
2023-01-15T09:50:59.483Z,99661.91
2023-01-15T09:52:19.738Z,99660.97
2023-01-15T09:53:24.106Z,99666.38
2023-01-15T09:55:03.286Z,99655.34
2023-01-15T09:56:05.351Z,99653.50
2023-01-15T09:57:11.506Z,99658.81
2023-01-15T09:58:16.871Z,99659.72
2023-01-15T09:59:40.663Z,99663.31
2023-01-15T10:00:52.353Z,99665.06
2023-01-15T10:01:54.016Z,99657.91
2023-01-15T10:03:06.821Z,99665.06
2023-01-15T10:04:26.620Z,99663.25
2023-01-15T10:05:35.939Z,99659.72
2023-01-15T10:07:08.627Z,99648.69
2023-01-15T10:08:15.269Z,99661.22
2023-01-15T10:09:31.409Z,99666.72
2023-01-15T10:10:52.372Z,99664.06
2023-01-15T10:12:20.173Z,99658.59
2023-01-15T10:13:35.479Z,99656.72
2023-01-15T10:15:08.988Z,99654.00
2023-01-15T10:16:13.403Z,99656.66
2023-01-15T10:17:28.404Z,99651.34
2023-01-15T10:18:30.013Z,99644.06
2023-01-15T10:19:43.944Z,99646.66
2023-01-15T10:20:54.629Z,99637.88
2023-01-15T10:22:10.973Z,99652.19
2023-01-15T10:23:32.759Z,99641.25
2023-01-15T10:24:50.384Z,99647.53
2023-01-15T10:25:58.028Z,99644.94
2023-01-15T10:27:00.155Z,99648.44
2023-01-15T10:28:13.394Z,99642.97
2023-01-15T10:29:21.960Z,99642.84
2023-01-15T10:30:47.632Z,99626.78
2023-01-15T10:31:53.737Z,99642.97
2023-01-15T10:33:03.122Z,99644.69
2023-01-15T10:34:43.463Z,99649.19
2023-01-15T10:35:53.542Z,99650.16
2023-01-15T10:37:09.721Z,99637.69
2023-01-15T10:38:19.892Z,99648.31
2023-01-15T10:39:33.961Z,99638.50
2023-01-15T10:40:35.270Z,99642.78
2023-01-15T10:42:08.780Z,99648.13
2023-01-15T10:43:19.191Z,99651.69
2023-01-15T10:45:01.707Z,99644.41
2023-01-15T10:46:14.025Z,99629.16
2023-01-15T10:47:19.085Z,99647.09
2023-01-15T10:48:32.511Z,99641.59
2023-01-15T10:49:34.708Z,99646.13
2023-01-15T10:50:36.952Z,99649.75
2023-01-15T10:51:47.574Z,99646.19
2023-01-15T10:53:17.721Z,99644.19
2023-01-15T10:54:19.095Z,99637.09
2023-01-15T10:55:32.430Z,99647.84
2023-01-15T10:56:52.005Z,99636.28
2023-01-15T10:58:10.213Z,99652.44
2023-01-15T10:59:30.725Z,99651.47
2023-01-15T11:00:32.261Z,99650.47
2023-01-15T11:01:34.103Z,99650.44
2023-01-15T11:02:43.062Z,99661.31
2023-01-15T11:03:44.711Z,99665.00
2023-01-15T11:04:46.199Z,99662.28
2023-01-15T11:05:47.802Z,99663.09
2023-01-15T11:06:49.413Z,99667.56
2023-01-15T11:09:24.046Z,99660.91
2023-01-15T11:10:25.523Z,99671.78
2023-01-15T11:12:01.497Z,99659.25
2023-01-15T11:13:36.950Z,99663.69
2023-01-15T11:14:59.863Z,99665.44
2023-01-15T11:16:20.215Z,99655.63
2023-01-15T11:17:42.477Z,99662.63
2023-01-15T11:19:04.760Z,99659.06
2023-01-15T11:20:34.690Z,99658.09
2023-01-15T11:21:42.367Z,99618.00
2023-01-15T11:22:45.017Z,99655.31
2023-01-15T11:23:47.913Z,99647.25
2023-01-15T11:24:51.665Z,99650.91
2023-01-15T11:25:56.762Z,99658.00
2023-01-15T11:26:58.298Z,99659.06
2023-01-15T11:28:02.433Z,99654.56
2023-01-15T11:29:15.682Z,99660.00
2023-01-15T11:30:39.733Z,99656.53
2023-01-15T11:31:41.723Z,99669.84
2023-01-15T11:32:43.061Z,99669.84
2023-01-15T11:34:06.195Z,99671.75
2023-01-15T11:35:10.821Z,99666.28
2023-01-15T11:36:22.725Z,99659.16
2023-01-15T11:37:24.243Z,99664.59
2023-01-15T11:38:31.123Z,99656.53
2023-01-15T11:39:33.030Z,99661.97
2023-01-15T11:40:34.812Z,99656.47
2023-01-15T11:41:54.610Z,99650.16
2023-01-15T11:43:14.547Z,99663.63
2023-01-15T11:44:36.209Z,99666.31
2023-01-15T11:46:10.315Z,99643.00
2023-01-15T11:47:36.861Z,99654.56
2023-01-15T11:49:05.823Z,99665.38
2023-01-15T11:50:38.881Z,99654.66
2023-01-15T11:51:48.696Z,99648.31
2023-01-15T11:52:55.583Z,99658.34
2023-01-15T11:54:04.530Z,99646.53
2023-01-15T11:55:17.964Z,99633.97
2023-01-15T11:56:24.667Z,99646.69
2023-01-15T11:57:30.167Z,99649.41
2023-01-15T11:58:46.046Z,99642.13
2023-01-15T11:59:50.584Z,99606.59
2023-01-15T12:00:55.880Z,99657.53
2023-01-15T12:02:03.978Z,99641.31
2023-01-15T12:03:12.363Z,99656.72
2023-01-15T12:04:30.702Z,99656.69
2023-01-15T12:05:35.531Z,99651.19
2023-01-15T12:06:40.837Z,99649.34
2023-01-15T12:07:42.932Z,99638.56
2023-01-15T12:08:53.469Z,99647.53
2023-01-15T12:10:13.873Z,99641.28
2023-01-15T12:11:33.300Z,99645.72
2023-01-15T12:12:51.348Z,99644.75
2023-01-15T12:14:15.772Z,99645.63
2023-01-15T12:16:07.971Z,99647.50
2023-01-15T12:17:12.012Z,99634.88
2023-01-15T12:18:29.146Z,99639.31
2023-01-15T12:19:52.553Z,99638.50
2023-01-15T12:21:05.074Z,99641.19
2023-01-15T12:22:06.433Z,99637.59
2023-01-15T12:23:26.261Z,99646.53
2023-01-15T12:24:52.174Z,99654.59
2023-01-15T12:25:59.531Z,99650.97
2023-01-15T12:27:27.149Z,99652.69
2023-01-15T12:28:33.537Z,99654.47
2023-01-15T12:29:43.333Z,99650.03
2023-01-15T12:31:05.081Z,99644.72
2023-01-15T12:32:19.496Z,99648.25
2023-01-15T12:33:37.234Z,99646.47
2023-01-15T12:34:50.963Z,99653.03
2023-01-15T12:36:06.534Z,99652.94
2023-01-15T12:37:20.827Z,99640.63
2023-01-15T12:38:39.753Z,99653.97
2023-01-15T12:39:50.662Z,99645.84
2023-01-15T12:40:56.358Z,99642.13
2023-01-15T12:42:20.666Z,99645.72
2023-01-15T12:43:44.973Z,99636.66
2023-01-15T12:45:09.910Z,99636.84
2023-01-15T12:46:22.951Z,99626.09
2023-01-15T12:47:37.035Z,99634.31
2023-01-15T12:48:43.022Z,99633.41
2023-01-15T12:49:53.156Z,99638.81
2023-01-15T12:50:59.090Z,99642.50
2023-01-15T12:52:08.532Z,99645.28
2023-01-15T12:53:19.312Z,99642.59
2023-01-15T12:54:31.257Z,99633.41
2023-01-15T12:55:40.078Z,99631.66
2023-01-15T12:56:41.460Z,99634.38
2023-01-15T12:57:47.673Z,99640.56
2023-01-15T12:58:52.156Z,99645.97
2023-01-15T13:00:07.317Z,99634.31
2023-01-15T13:01:21.783Z,99639.72
2023-01-15T13:02:54.196Z,99640.69
2023-01-15T13:03:55.565Z,99632.41
2023-01-15T13:05:27.211Z,99625.13